createdAt,value
2023-02-13T00:00:26.908Z,6.47
2023-02-13T00:02:29.952Z,6.47
2023-02-13T00:04:33.040Z,6.46
2023-02-13T00:06:37.501Z,6.46
2023-02-13T00:08:40.857Z,6.45
2023-02-13T00:10:43.912Z,6.46
2023-02-13T00:12:46.946Z,6.47
2023-02-13T00:14:49.997Z,6.47
2023-02-13T00:16:52.978Z,6.46
2023-02-13T00:18:56.048Z,6.47
2023-02-13T00:21:04.567Z,6.47
2023-02-13T00:23:08.999Z,6.47
2023-02-13T00:25:12.464Z,6.46
2023-02-13T00:27:15.503Z,6.45
2023-02-13T00:29:18.561Z,6.45
2023-02-13T00:31:22.719Z,6.44
2023-02-13T00:33:25.762Z,6.44
2023-02-13T00:35:28.812Z,6.42
2023-02-13T00:37:31.861Z,6.43
2023-02-13T00:39:36.287Z,6.41
2023-02-13T00:41:39.620Z,6.40
2023-02-13T00:43:42.664Z,6.40
2023-02-13T00:45:45.806Z,6.39
2023-02-13T00:47:49.067Z,6.39
2023-02-13T00:49:52.201Z,6.38
2023-02-13T00:51:55.368Z,6.39
2023-02-13T00:53:58.712Z,6.39
2023-02-13T00:56:03.745Z,6.40
2023-02-13T00:58:06.885Z,6.38
2023-02-13T01:00:10.988Z,6.39
2023-02-13T01:02:14.151Z,6.39
2023-02-13T01:04:17.320Z,6.40
2023-02-13T01:06:20.501Z,6.39
2023-02-13T01:08:23.626Z,6.40
2023-02-13T01:10:27.062Z,6.39
2023-02-13T01:12:31.653Z,6.38
2023-02-13T01:14:35.373Z,6.39
2023-02-13T01:16:38.532Z,6.38
2023-02-13T01:18:41.769Z,6.38
2023-02-13T01:20:45.409Z,6.38
2023-02-13T01:22:48.527Z,6.37
2023-02-13T01:24:52.753Z,6.37
2023-02-13T01:26:55.888Z,6.36
2023-02-13T01:29:00.887Z,6.35
2023-02-13T01:31:04.268Z,6.33
2023-02-13T01:33:07.573Z,6.33
2023-02-13T01:35:12.345Z,6.32
2023-02-13T01:37:15.846Z,6.33
2023-02-13T01:39:18.944Z,6.32
2023-02-13T01:41:22.277Z,6.33
2023-02-13T01:43:26.106Z,6.34
2023-02-13T01:45:32.364Z,6.34
2023-02-13T01:47:41.624Z,6.34
2023-02-13T01:49:48.639Z,6.34
2023-02-13T01:51:55.754Z,6.33
2023-02-13T01:54:03.298Z,6.32
2023-02-13T01:56:12.132Z,6.32
2023-02-13T01:58:20.466Z,6.32
2023-02-13T02:00:24.097Z,6.32
2023-02-13T02:02:30.978Z,6.31
2023-02-13T02:04:39.904Z,6.30
2023-02-13T02:06:50.908Z,6.29
2023-02-13T02:09:04.202Z,6.27
2023-02-13T02:11:15.172Z,6.26
2023-02-13T02:13:21.330Z,6.27
2023-02-13T02:15:24.584Z,6.26
2023-02-13T02:17:29.395Z,6.24
2023-02-13T02:19:39.812Z,6.25
2023-02-13T02:22:06.647Z,6.25
2023-02-13T02:24:28.969Z,6.24
2023-02-13T02:26:56.697Z,6.25
2023-02-13T02:29:28.365Z,6.24
2023-02-13T02:32:01.667Z,6.25
2023-02-13T02:34:17.025Z,6.25
2023-02-13T02:36:32.820Z,6.26
2023-02-13T02:38:49.305Z,6.27
2023-02-13T02:41:02.717Z,6.25
2023-02-13T02:43:27.821Z,6.26
2023-02-13T02:45:40.710Z,6.25
2023-02-13T02:48:14.925Z,6.25
2023-02-13T02:50:36.844Z,6.23
2023-02-13T02:52:55.553Z,6.24
2023-02-13T02:55:07.736Z,6.23
2023-02-13T02:57:21.649Z,6.22
2023-02-13T02:59:50.158Z,6.21
2023-02-13T03:02:18.983Z,6.20
2023-02-13T03:04:45.687Z,6.18
2023-02-13T03:06:53.104Z,6.17
2023-02-13T03:09:17.975Z,6.15
2023-02-13T03:11:38.424Z,6.14
2023-02-13T03:13:45.758Z,6.11
2023-02-13T03:16:08.909Z,6.11
2023-02-13T03:18:41.188Z,6.09
2023-02-13T03:21:09.623Z,6.10
2023-02-13T03:23:15.525Z,6.09
2023-02-13T03:25:30.319Z,6.10
2023-02-13T03:27:59.510Z,6.09
2023-02-13T03:30:13.189Z,6.10
2023-02-13T03:32:25.624Z,6.09
2023-02-13T03:34:55.054Z,6.09
2023-02-13T03:37:20.506Z,6.08
2023-02-13T03:39:30.174Z,6.09
2023-02-13T03:41:41.235Z,6.09
2023-02-13T03:43:52.717Z,6.08
2023-02-13T03:45:57.150Z,6.08
2023-02-13T03:48:09.762Z,6.09
2023-02-13T03:50:14.022Z,6.08
2023-02-13T03:52:25.925Z,6.08
2023-02-13T03:54:54.612Z,6.07
2023-02-13T03:57:15.209Z,6.05
2023-02-13T03:59:23.766Z,6.04
2023-02-13T04:01:30.446Z,6.04
2023-02-13T04:03:42.657Z,6.02
2023-02-13T04:05:50.753Z,6.01
2023-02-13T04:07:55.405Z,6.00
2023-02-13T04:10:01.655Z,6.01
2023-02-13T04:12:14.489Z,6.00
2023-02-13T04:14:21.640Z,6.00
2023-02-13T04:16:30.634Z,6.01
2023-02-13T04:18:35.154Z,6.02
2023-02-13T04:20:40.383Z,6.01
2023-02-13T04:22:44.800Z,6.02
2023-02-13T04:24:50.170Z,6.01
2023-02-13T04:26:55.014Z,6.00
2023-02-13T04:28:58.180Z,6.00
2023-02-13T04:31:01.786Z,5.98
2023-02-13T04:33:05.465Z,5.99
2023-02-13T04:35:09.420Z,5.98
2023-02-13T04:37:12.661Z,5.98
2023-02-13T04:39:15.973Z,5.98
2023-02-13T04:41:20.670Z,5.97
2023-02-13T04:43:25.360Z,5.97
2023-02-13T04:45:28.636Z,5.96
2023-02-13T04:47:31.907Z,5.96
2023-02-13T04:49:35.145Z,5.96
2023-02-13T04:51:38.364Z,5.96
2023-02-13T04:53:41.633Z,5.96
2023-02-13T04:55:44.945Z,5.96
2023-02-13T04:57:49.613Z,5.96
2023-02-13T04:59:52.828Z,5.96
2023-02-13T05:01:56.047Z,5.96
2023-02-13T05:03:59.269Z,5.98
2023-02-13T05:06:02.497Z,5.97
2023-02-13T05:08:06.295Z,5.97
2023-02-13T05:10:10.695Z,5.96
2023-02-13T05:12:13.862Z,5.95
2023-02-13T05:14:18.572Z,5.95
2023-02-13T05:16:21.765Z,5.93
2023-02-13T05:18:25.257Z,5.92
2023-02-13T05:20:28.663Z,5.93
2023-02-13T05:22:49.586Z,5.93
2023-02-13T05:24:52.752Z,5.93
2023-02-13T05:26:55.935Z,5.94
2023-02-13T05:29:16.743Z,5.95
2023-02-13T05:31:21.611Z,5.97
2023-02-13T05:33:25.232Z,5.98
2023-02-13T05:35:28.492Z,5.99
2023-02-13T05:37:31.964Z,6.00
2023-02-13T05:39:35.366Z,6.02
2023-02-13T05:41:38.710Z,6.02
2023-02-13T05:43:42.001Z,6.01
2023-02-13T05:45:45.220Z,6.00
2023-02-13T05:47:49.899Z,5.99
2023-02-13T05:49:53.430Z,5.97
2023-02-13T05:51:56.806Z,5.96
2023-02-13T05:54:00.268Z,5.95
2023-02-13T05:56:04.458Z,5.94
2023-02-13T05:58:09.514Z,5.93
2023-02-13T06:00:13.965Z,5.94
2023-02-13T06:02:17.345Z,5.95
2023-02-13T06:04:22.041Z,5.96
2023-02-13T06:06:25.478Z,5.97
2023-02-13T06:08:28.806Z,5.96
2023-02-13T06:10:32.082Z,5.95
2023-02-13T06:12:35.661Z,5.93
2023-02-13T06:14:38.858Z,5.92
2023-02-13T06:16:42.626Z,5.90
2023-02-13T06:18:45.868Z,5.89
2023-02-13T06:20:50.676Z,5.89
2023-02-13T06:22:54.508Z,5.89
2023-02-13T06:24:57.713Z,5.89
2023-02-13T06:27:00.946Z,5.90
2023-02-13T06:29:05.820Z,5.91
2023-02-13T06:31:10.157Z,5.92
2023-02-13T06:33:13.627Z,5.92
2023-02-13T06:35:17.447Z,5.93
2023-02-13T06:37:22.036Z,5.94
2023-02-13T06:39:25.242Z,5.92
2023-02-13T06:41:28.483Z,5.91
2023-02-13T06:43:32.201Z,5.90
2023-02-13T06:45:35.417Z,5.90
2023-02-13T06:47:42.891Z,5.88
2023-02-13T06:49:46.120Z,5.87
2023-02-13T06:51:49.306Z,5.86
2023-02-13T06:53:53.907Z,5.88
2023-02-13T06:55:57.970Z,5.86
2023-02-13T06:58:04.111Z,5.86
2023-02-13T07:00:09.084Z,5.86
2023-02-13T07:02:12.522Z,5.86
2023-02-13T07:04:15.812Z,5.86
2023-02-13T07:06:19.848Z,5.86
2023-02-13T07:08:23.075Z,5.87
2023-02-13T07:10:27.667Z,5.88
2023-02-13T07:12:30.928Z,5.89
2023-02-13T07:14:34.146Z,5.91
2023-02-13T07:16:37.436Z,5.91
2023-02-13T07:18:40.827Z,5.90
2023-02-13T07:20:44.041Z,5.91
2023-02-13T07:22:47.236Z,5.91
2023-02-13T07:24:50.488Z,5.92
2023-02-13T07:26:55.071Z,5.91
2023-02-13T07:29:10.480Z,5.93
2023-02-13T07:31:14.319Z,5.94
2023-02-13T07:33:17.961Z,5.96
2023-02-13T07:35:21.197Z,5.98
2023-02-13T07:37:25.047Z,5.98
2023-02-13T07:39:28.234Z,5.98
2023-02-13T07:41:31.405Z,5.99
2023-02-13T07:43:36.131Z,5.98
2023-02-13T07:45:39.377Z,5.98
2023-02-13T07:47:42.668Z,5.97
2023-02-13T07:49:45.850Z,5.96
2023-02-13T07:51:49.031Z,5.97
2023-02-13T07:53:52.557Z,5.96
2023-02-13T07:55:56.328Z,5.96
2023-02-13T07:58:01.687Z,5.96
2023-02-13T08:00:07.913Z,5.96
2023-02-13T08:02:16.127Z,5.96
2023-02-13T08:04:19.484Z,5.97
2023-02-13T08:06:23.181Z,5.98
2023-02-13T08:08:26.373Z,5.98
2023-02-13T08:10:46.890Z,5.98
2023-02-13T08:12:50.794Z,5.98
2023-02-13T08:14:54.742Z,5.99
2023-02-13T08:17:00.353Z,5.99
2023-02-13T08:19:03.609Z,6.02
2023-02-13T08:21:07.234Z,6.02
2023-02-13T08:23:12.754Z,6.03
2023-02-13T08:25:16.011Z,6.05
2023-02-13T08:27:19.265Z,6.08
2023-02-13T08:29:22.514Z,6.10
2023-02-13T08:31:25.958Z,6.13
2023-02-13T08:33:31.580Z,6.15
2023-02-13T08:35:34.828Z,6.17
2023-02-13T08:37:38.059Z,6.19
2023-02-13T08:39:41.336Z,6.22
2023-02-13T08:41:44.624Z,6.25
2023-02-13T08:43:47.837Z,6.25
2023-02-13T08:45:51.138Z,6.27
2023-02-13T08:47:57.456Z,6.27
2023-02-13T08:50:02.163Z,6.28
2023-02-13T08:52:05.904Z,6.29
2023-02-13T08:54:09.173Z,6.29
2023-02-13T08:56:12.623Z,6.29
2023-02-13T08:58:15.972Z,6.31
2023-02-13T09:00:19.548Z,6.32
2023-02-13T09:02:22.802Z,6.33
2023-02-13T09:04:26.039Z,6.34
2023-02-13T09:06:30.671Z,6.35
2023-02-13T09:08:35.647Z,6.35
2023-02-13T09:10:39.764Z,6.36
2023-02-13T09:12:42.984Z,6.35
2023-02-13T09:14:46.174Z,6.36
2023-02-13T09:16:49.463Z,6.37
2023-02-13T09:18:53.158Z,6.41
2023-02-13T09:21:01.093Z,6.42
2023-02-13T09:23:05.671Z,6.45
2023-02-13T09:25:09.503Z,6.46
2023-02-13T09:27:12.691Z,6.46
2023-02-13T09:29:16.142Z,6.46
2023-02-13T09:31:24.117Z,6.49
2023-02-13T09:33:27.931Z,6.51
2023-02-13T09:35:31.118Z,6.54
2023-02-13T09:37:34.406Z,6.56
2023-02-13T09:39:39.447Z,6.60
2023-02-13T09:41:46.269Z,6.64
2023-02-13T09:43:52.808Z,6.69
2023-02-13T09:45:59.929Z,6.73
2023-02-13T09:48:03.684Z,6.76
2023-02-13T09:50:13.552Z,6.79
2023-02-13T09:52:16.788Z,6.82
2023-02-13T09:54:20.133Z,6.85
2023-02-13T09:56:38.761Z,6.87
2023-02-13T09:58:45.873Z,6.88
2023-02-13T10:00:54.717Z,6.91
2023-02-13T10:03:27.106Z,6.91
2023-02-13T10:05:49.096Z,6.91
2023-02-13T10:08:01.316Z,6.90
2023-02-13T10:10:14.561Z,6.89
2023-02-13T10:12:50.029Z,6.91
2023-02-13T10:15:11.420Z,6.91
2023-02-13T10:17:18.978Z,6.91
2023-02-13T10:19:33.810Z,6.93
2023-02-13T10:21:48.554Z,6.93
2023-02-13T10:23:58.477Z,6.93
2023-02-13T10:26:03.877Z,6.95
2023-02-13T10:28:14.490Z,6.98
2023-02-13T10:30:22.010Z,7.00
2023-02-13T10:32:31.975Z,7.05
2023-02-13T10:34:40.051Z,7.09
2023-02-13T10:36:47.360Z,7.11
2023-02-13T10:38:59.433Z,7.10
2023-02-13T10:41:15.183Z,7.10
2023-02-13T10:43:22.297Z,7.09
2023-02-13T10:45:47.245Z,7.11
2023-02-13T10:48:02.650Z,7.13
2023-02-13T10:50:20.649Z,7.18
2023-02-13T10:52:38.280Z,7.22
2023-02-13T10:54:58.895Z,7.24
2023-02-13T10:57:12.547Z,7.24
2023-02-13T10:59:35.409Z,7.25
2023-02-13T11:01:46.833Z,7.27
2023-02-13T11:04:01.822Z,7.29
2023-02-13T11:06:09.438Z,7.28
2023-02-13T11:08:20.137Z,7.29
2023-02-13T11:10:25.418Z,7.31
2023-02-13T11:12:30.667Z,7.32
2023-02-13T11:14:35.250Z,7.33
2023-02-13T11:16:48.612Z,7.33
2023-02-13T11:18:52.117Z,7.32
2023-02-13T11:21:02.529Z,7.31
2023-02-13T11:23:36.233Z,7.32
2023-02-13T11:25:39.827Z,7.34
2023-02-13T11:27:43.354Z,7.33
2023-02-13T11:29:56.943Z,7.33
2023-02-13T11:32:18.388Z,7.34
2023-02-13T11:34:27.336Z,7.34
2023-02-13T11:36:32.062Z,7.33
2023-02-13T11:38:35.630Z,7.33
2023-02-13T11:40:39.551Z,7.33
2023-02-13T11:42:44.149Z,7.35
2023-02-13T11:44:52.997Z,7.37
2023-02-13T11:46:59.339Z,7.39
2023-02-13T11:49:04.027Z,7.40
2023-02-13T11:51:07.682Z,7.43
2023-02-13T11:53:20.917Z,7.46
2023-02-13T11:55:30.843Z,7.46
2023-02-13T11:57:36.083Z,7.46
2023-02-13T11:59:44.505Z,7.46
2023-02-13T12:01:50.368Z,7.44
2023-02-13T12:04:05.666Z,7.42
2023-02-13T12:06:14.954Z,7.42
2023-02-13T12:08:18.561Z,7.41
2023-02-13T12:10:24.465Z,7.40
2023-02-13T12:12:35.182Z,7.41
2023-02-13T12:14:41.787Z,7.47
2023-02-13T12:16:50.545Z,7.53
2023-02-13T12:18:57.461Z,7.57
2023-02-13T12:21:09.777Z,7.60
2023-02-13T12:23:27.233Z,7.62
2023-02-13T12:25:47.941Z,7.64
2023-02-13T12:28:05.682Z,7.64
2023-02-13T12:30:30.116Z,7.63
2023-02-13T12:32:47.283Z,7.65
2023-02-13T12:35:15.982Z,7.67
2023-02-13T12:37:35.482Z,7.65
2023-02-13T12:39:43.074Z,7.65
2023-02-13T12:41:55.111Z,7.66
2023-02-13T12:44:09.913Z,7.66
2023-02-13T12:46:23.224Z,7.69
2023-02-13T12:48:38.604Z,7.70
2023-02-13T12:50:58.311Z,7.70
2023-02-13T12:53:29.731Z,7.65
2023-02-13T12:55:47.204Z,7.61
2023-02-13T12:58:06.573Z,7.56
2023-02-13T13:00:27.824Z,7.53
2023-02-13T13:03:08.035Z,7.49
2023-02-13T13:05:27.314Z,7.48
2023-02-13T13:07:44.711Z,7.46
2023-02-13T13:10:04.233Z,7.43
2023-02-13T13:12:27.401Z,7.41
2023-02-13T13:14:38.546Z,7.38
2023-02-13T13:16:51.725Z,7.37
2023-02-13T13:19:11.724Z,7.34
2023-02-13T13:21:42.755Z,7.32
2023-02-13T13:23:51.018Z,7.30
2023-02-13T13:26:07.755Z,7.28
2023-02-13T13:28:17.149Z,7.27
2023-02-13T13:30:25.074Z,7.27
2023-02-13T13:32:30.312Z,7.28
2023-02-13T13:34:36.445Z,7.28
2023-02-13T13:36:47.453Z,7.31
2023-02-13T13:39:01.623Z,7.33
2023-02-13T13:41:15.225Z,7.32
2023-02-13T13:43:27.302Z,7.32
2023-02-13T13:45:40.149Z,7.34
2023-02-13T13:47:58.782Z,7.36
2023-02-13T13:50:05.816Z,7.36
2023-02-13T13:52:21.940Z,7.36
2023-02-13T13:54:36.150Z,7.37
2023-02-13T13:57:12.543Z,7.36
2023-02-13T13:59:18.988Z,7.36
2023-02-13T14:01:29.424Z,7.37
2023-02-13T14:03:36.995Z,7.39
2023-02-13T14:05:59.254Z,7.39
2023-02-13T14:08:04.661Z,7.38
2023-02-13T14:10:30.338Z,7.36
2023-02-13T14:12:48.318Z,7.34
2023-02-13T14:14:53.122Z,7.32
2023-02-13T14:16:58.131Z,7.29
2023-02-13T14:19:01.364Z,7.28
2023-02-13T14:21:06.100Z,7.26
2023-02-13T14:23:28.971Z,7.24
2023-02-13T14:25:32.380Z,7.21
2023-02-13T14:27:38.365Z,7.18
2023-02-13T14:29:49.434Z,7.14
2023-02-13T14:32:17.521Z,7.12
2023-02-13T14:34:26.738Z,7.09
2023-02-13T14:36:33.690Z,7.07
2023-02-13T14:38:37.590Z,7.05
2023-02-13T14:40:48.000Z,7.03
2023-02-13T14:42:55.377Z,7.01
2023-02-13T14:45:03.396Z,6.99
2023-02-13T14:47:20.683Z,6.95
2023-02-13T14:49:28.519Z,6.91
2023-02-13T14:51:36.237Z,6.88
2023-02-13T14:53:49.013Z,6.87
2023-02-13T14:55:59.112Z,6.87
2023-02-13T14:58:08.734Z,6.86
2023-02-13T15:00:26.105Z,6.86
2023-02-13T15:02:32.931Z,6.85
2023-02-13T15:04:42.243Z,6.84
2023-02-13T15:06:47.128Z,6.84
2023-02-13T15:08:52.742Z,6.85
2023-02-13T15:10:58.115Z,6.84
2023-02-13T15:13:03.939Z,6.82
2023-02-13T15:15:26.579Z,6.81
2023-02-13T15:17:38.198Z,6.80
2023-02-13T15:19:46.783Z,6.78
2023-02-13T15:21:55.799Z,6.76
2023-02-13T15:23:59.004Z,6.75
2023-02-13T15:26:04.458Z,6.73
2023-02-13T15:28:09.797Z,6.71
2023-02-13T15:30:21.711Z,6.68
2023-02-13T15:32:32.484Z,6.66
2023-02-13T15:34:37.083Z,6.62
2023-02-13T15:36:42.500Z,6.60
2023-02-13T15:38:45.650Z,6.57
2023-02-13T15:40:52.107Z,6.57
2023-02-13T15:42:56.394Z,6.57
2023-02-13T15:44:59.758Z,6.53
2023-02-13T15:47:07.427Z,6.52
2023-02-13T15:49:16.673Z,6.49
2023-02-13T15:51:21.322Z,6.47
2023-02-13T15:53:24.593Z,6.45
2023-02-13T15:55:30.381Z,6.44
2023-02-13T15:57:34.185Z,6.40
2023-02-13T15:59:39.676Z,6.39
2023-02-13T16:01:44.693Z,6.38
2023-02-13T16:03:50.420Z,6.36
2023-02-13T16:05:55.448Z,6.35
2023-02-13T16:08:01.367Z,6.34
2023-02-13T16:10:17.582Z,6.31
2023-02-13T16:12:23.629Z,6.32
2023-02-13T16:14:29.174Z,6.30
2023-02-13T16:16:36.218Z,6.28
2023-02-13T16:18:41.656Z,6.27
2023-02-13T16:20:44.847Z,6.26
2023-02-13T16:22:52.392Z,6.25
2023-02-13T16:25:03.950Z,6.24
2023-02-13T16:27:14.608Z,6.22
2023-02-13T16:29:21.739Z,6.22
2023-02-13T16:31:25.012Z,6.21
2023-02-13T16:33:32.159Z,6.22
2023-02-13T16:35:39.161Z,6.22
2023-02-13T16:37:53.765Z,6.20
2023-02-13T16:39:57.222Z,6.20
2023-02-13T16:42:02.508Z,6.20
2023-02-13T16:44:06.377Z,6.19
2023-02-13T16:46:36.305Z,6.16
2023-02-13T16:48:39.899Z,6.14
2023-02-13T16:50:44.215Z,6.11
2023-02-13T16:52:47.863Z,6.07
2023-02-13T16:54:55.907Z,6.06
2023-02-13T16:57:01.891Z,6.05
2023-02-13T16:59:15.422Z,6.03
2023-02-13T17:01:18.759Z,6.04
2023-02-13T17:03:22.055Z,6.03
2023-02-13T17:05:27.809Z,6.04
2023-02-13T17:07:32.734Z,6.03
2023-02-13T17:09:36.002Z,6.03
2023-02-13T17:11:40.818Z,6.02
2023-02-13T17:13:44.041Z,6.02
2023-02-13T17:15:51.824Z,6.01
2023-02-13T17:17:55.682Z,6.02
2023-02-13T17:19:59.077Z,6.02
2023-02-13T17:22:02.459Z,6.02
2023-02-13T17:24:07.349Z,6.01
2023-02-13T17:26:10.577Z,6.00
2023-02-13T17:28:16.536Z,5.98
2023-02-13T17:30:23.217Z,5.95
2023-02-13T17:32:27.971Z,5.96
2023-02-13T17:34:31.237Z,5.94
2023-02-13T17:36:34.386Z,5.92
2023-02-13T17:38:37.564Z,5.90
2023-02-13T17:40:42.280Z,5.90
2023-02-13T17:42:47.523Z,5.88
2023-02-13T17:44:52.608Z,5.89
2023-02-13T17:46:55.808Z,5.89
2023-02-13T17:48:59.009Z,5.91
2023-02-13T17:51:02.297Z,5.91
2023-02-13T17:53:07.984Z,5.90
2023-02-13T17:55:17.698Z,5.89
2023-02-13T17:57:21.148Z,5.89
2023-02-13T17:59:25.599Z,5.87
2023-02-13T18:01:30.475Z,5.85
2023-02-13T18:03:33.737Z,5.83
2023-02-13T18:05:36.890Z,5.83
2023-02-13T18:07:41.538Z,5.82
2023-02-13T18:09:44.839Z,5.82
2023-02-13T18:12:03.702Z,5.83
2023-02-13T18:14:08.327Z,5.84
2023-02-13T18:16:12.403Z,5.83
2023-02-13T18:18:17.798Z,5.84
2023-02-13T18:20:22.417Z,5.86
2023-02-13T18:22:25.722Z,5.86
2023-02-13T18:24:32.832Z,5.88
2023-02-13T18:26:36.035Z,5.89
2023-02-13T18:28:39.177Z,5.89
2023-02-13T18:30:43.845Z,5.89
2023-02-13T18:32:47.843Z,5.89
2023-02-13T18:34:52.347Z,5.89
2023-02-13T18:36:55.518Z,5.87
2023-02-13T18:38:58.674Z,5.86
2023-02-13T18:41:02.225Z,5.86
2023-02-13T18:43:05.523Z,5.85
2023-02-13T18:45:09.540Z,5.85
2023-02-13T18:47:13.108Z,5.84
2023-02-13T18:49:16.335Z,5.83
2023-02-13T18:51:20.947Z,5.83
2023-02-13T18:53:24.547Z,5.82
2023-02-13T18:55:27.762Z,5.80
2023-02-13T18:57:32.450Z,5.81
2023-02-13T18:59:35.673Z,5.82
2023-02-13T19:01:38.843Z,5.83
2023-02-13T19:03:42.346Z,5.85
2023-02-13T19:05:45.776Z,5.86
2023-02-13T19:07:50.398Z,5.87
2023-02-13T19:09:53.847Z,5.88
2023-02-13T19:11:57.018Z,5.89
2023-02-13T19:14:01.331Z,5.88
2023-02-13T19:16:05.567Z,5.86
2023-02-13T19:18:09.343Z,5.85
2023-02-13T19:20:15.585Z,5.85
2023-02-13T19:22:19.817Z,5.85
2023-02-13T19:24:24.366Z,5.86
2023-02-13T19:26:28.498Z,5.86
2023-02-13T19:28:31.751Z,5.86
2023-02-13T19:30:34.954Z,5.86
2023-02-13T19:32:38.124Z,5.87
2023-02-13T19:34:41.269Z,5.87
2023-02-13T19:36:44.507Z,5.87
2023-02-13T19:38:48.222Z,5.87
2023-02-13T19:40:52.900Z,5.86
2023-02-13T19:42:56.066Z,5.86
2023-02-13T19:44:59.453Z,5.86
2023-02-13T19:47:02.587Z,5.86
2023-02-13T19:49:06.567Z,5.85
2023-02-13T19:51:10.891Z,5.83
2023-02-13T19:53:14.019Z,5.80
2023-02-13T19:55:17.630Z,5.82
2023-02-13T19:57:22.676Z,5.80
2023-02-13T19:59:25.821Z,5.81
2023-02-13T20:01:30.906Z,5.80
2023-02-13T20:03:34.231Z,5.80
2023-02-13T20:05:41.141Z,5.80
2023-02-13T20:07:44.415Z,5.80
2023-02-13T20:09:47.749Z,5.80
2023-02-13T20:11:51.387Z,5.79
2023-02-13T20:13:57.003Z,5.79
2023-02-13T20:16:00.263Z,5.78
2023-02-13T20:18:03.456Z,5.79
2023-02-13T20:20:08.018Z,5.79
2023-02-13T20:22:13.553Z,5.79
2023-02-13T20:24:17.196Z,5.77
2023-02-13T20:26:21.094Z,5.78
2023-02-13T20:28:24.245Z,5.78
2023-02-13T20:30:29.645Z,5.80
2023-02-13T20:32:32.991Z,5.79
2023-02-13T20:34:44.313Z,5.79
2023-02-13T20:36:53.303Z,5.78
2023-02-13T20:38:59.668Z,5.79
2023-02-13T20:41:08.512Z,5.80
2023-02-13T20:43:11.665Z,5.80
2023-02-13T20:45:14.783Z,5.80
2023-02-13T20:47:19.480Z,5.82
2023-02-13T20:49:22.738Z,5.82
2023-02-13T20:51:25.907Z,5.84
2023-02-13T20:53:30.361Z,5.84
2023-02-13T20:55:33.752Z,5.84
2023-02-13T20:57:37.779Z,5.83
2023-02-13T20:59:41.207Z,5.82
2023-02-13T21:01:45.698Z,5.80
2023-02-13T21:03:55.003Z,5.80
2023-02-13T21:05:58.196Z,5.80
2023-02-13T21:08:01.751Z,5.79
2023-02-13T21:10:05.881Z,5.79
2023-02-13T21:12:09.121Z,5.78
2023-02-13T21:14:13.093Z,5.79
2023-02-13T21:16:18.699Z,5.78
2023-02-13T21:18:21.927Z,5.78
2023-02-13T21:20:26.459Z,5.77
2023-02-13T21:22:31.233Z,5.76
2023-02-13T21:24:34.868Z,5.77
2023-02-13T21:26:38.292Z,5.78
2023-02-13T21:28:42.785Z,5.79
2023-02-13T21:30:46.120Z,5.82
2023-02-13T21:32:49.285Z,5.83
2023-02-13T21:34:55.953Z,5.83
2023-02-13T21:37:01.177Z,5.84
2023-02-13T21:39:05.030Z,5.82
2023-02-13T21:41:09.859Z,5.80
2023-02-13T21:43:12.971Z,5.79
2023-02-13T21:45:16.475Z,5.79
2023-02-13T21:47:20.017Z,5.78
2023-02-13T21:49:25.101Z,5.77
2023-02-13T21:51:30.238Z,5.75
2023-02-13T21:53:35.039Z,5.74
2023-02-13T21:55:38.334Z,5.72
2023-02-13T21:57:41.606Z,5.73
2023-02-13T21:59:44.991Z,5.73
2023-02-13T22:01:50.609Z,5.73
2023-02-13T22:03:54.235Z,5.72
2023-02-13T22:05:57.490Z,5.72
2023-02-13T22:08:17.239Z,5.72
2023-02-13T22:10:21.869Z,5.72
2023-02-13T22:12:25.182Z,5.70
2023-02-13T22:14:28.443Z,5.69
2023-02-13T22:16:32.704Z,5.69
2023-02-13T22:18:37.320Z,5.71
2023-02-13T22:20:40.979Z,5.71
2023-02-13T22:22:44.226Z,5.72
2023-02-13T22:24:47.543Z,5.71
2023-02-13T22:26:52.197Z,5.72
2023-02-13T22:28:56.912Z,5.72
2023-02-13T22:31:01.160Z,5.72
2023-02-13T22:33:05.263Z,5.74
2023-02-13T22:35:09.657Z,5.73
2023-02-13T22:37:12.833Z,5.72
2023-02-13T22:39:16.138Z,5.72
2023-02-13T22:41:22.572Z,5.71
2023-02-13T22:43:27.245Z,5.70
2023-02-13T22:45:30.884Z,5.68
2023-02-13T22:47:34.122Z,5.67
2023-02-13T22:49:37.359Z,5.64
2023-02-13T22:51:40.644Z,5.65
2023-02-13T22:53:44.348Z,5.61
2023-02-13T22:55:47.567Z,5.60
2023-02-13T22:57:54.337Z,5.56
2023-02-13T22:59:59.074Z,5.54
2023-02-13T23:02:02.337Z,5.52
2023-02-13T23:04:05.714Z,5.49
2023-02-13T23:06:10.519Z,5.47
2023-02-13T23:08:13.864Z,5.45
2023-02-13T23:10:18.966Z,5.45
2023-02-13T23:12:36.774Z,5.45
2023-02-13T23:14:40.034Z,5.45
2023-02-13T23:17:02.264Z,5.45
2023-02-13T23:19:05.528Z,5.43
2023-02-13T23:21:09.551Z,5.43
2023-02-13T23:23:12.989Z,5.42
2023-02-13T23:25:16.590Z,5.42
2023-02-13T23:27:19.852Z,5.41
2023-02-13T23:29:23.403Z,5.39
2023-02-13T23:31:27.161Z,5.38
2023-02-13T23:33:32.381Z,5.37
2023-02-13T23:35:35.609Z,5.36
2023-02-13T23:37:39.071Z,5.37
2023-02-13T23:39:42.359Z,5.37
2023-02-13T23:41:45.663Z,5.38
2023-02-13T23:43:48.841Z,5.39
2023-02-13T23:45:52.110Z,5.39
2023-02-13T23:47:55.388Z,5.39
2023-02-13T23:49:59.943Z,5.40
2023-02-13T23:52:03.191Z,5.41
2023-02-13T23:54:06.515Z,5.41
2023-02-13T23:56:09.702Z,5.39
2023-02-13T23:58:12.885Z,5.36
